ADDS METAR Data INFO
IDs: Format: Raw Decoded Include TAF

Data at: 1534 UTC 25 Feb 2018

KZPH 251515Z AUTO 17010KT 10SM CLR 25/20 A3021 RMK AO2 T02540195
KZPH 251455Z AUTO 17011KT 10SM SCT085 25/19 A3021 RMK AO2 T02490193
KZPH 251435Z AUTO 18007KT 10SM SCT085 25/20 A3021 RMK AO2 T02460196
KZPH 251415Z AUTO 18008KT 10SM OVC085 24/20 A3021 RMK AO2 T02400196
KZPH 251355Z AUTO 16006KT 10SM OVC085 23/20 A3021 RMK AO2 T02270199
KZPH 251335Z AUTO 16004KT 10SM OVC085 22/20 A3020 RMK AO2 T02160199
KZPH 251315Z AUTO 15005KT 10SM OVC085 21/20 A3020 RMK AO2 T02090196
KZPH 251255Z AUTO 14003KT 10SM OVC085 21/19 A3019 RMK AO2 T02050193
KZPH 251235Z AUTO 14003KT 10SM OVC085 20/19 A3019 RMK AO2 T02020190
KZPH 251215Z AUTO 00000KT 10SM OVC085 20/19 A3019 RMK AO2 T02020189
KZPH 251155Z AUTO 14003KT 10SM OVC085 20/19 A3019 RMK AO2 70001 T02000187 10206 20200
KZPH 251135Z AUTO 00000KT 10SM SCT075 OVC085 20/19 A3018 RMK AO2 T02010190
KZPH 251115Z AUTO 00000KT 10SM OVC085 20/19 A3017 RMK AO2 T02020188
KZPH 251055Z AUTO 00000KT 10SM OVC085 20/19 A3017 RMK AO2 T02020187
KZPH 251035Z AUTO 00000KT 10SM OVC085 20/19 A3016 RMK AO2 T02020188
KZPH 251015Z AUTO 00000KT 10SM OVC085 20/19 A3016 RMK AO2 T02010190
KZPH 250955Z AUTO 00000KT 10SM SCT075 OVC085 20/19 A3015 RMK AO2 T02010188
KZPH 250935Z AUTO 00000KT 10SM BKN070 OVC085 20/19 A3016 RMK AO2 T02030190
KZPH 250915Z AUTO 00000KT 10SM OVC070 21/19 A3016 RMK AO2 T02050190
KZPH 250855Z AUTO 00000KT 10SM OVC070 20/19 A3016 RMK AO2 T02030190
KZPH 250835Z AUTO 15003KT 10SM OVC070 21/19 A3016 RMK AO2 T02050190
KZPH 250815Z AUTO 15004KT 10SM BKN070 OVC090 20/19 A3016 RMK AO2 T02030190
KZPH 250755Z AUTO 15004KT 10SM SCT070 OVC090 21/19 A3017 RMK AO2 T02050190
KZPH 250735Z AUTO 00000KT 10SM SCT070 OVC090 20/19 A3018 RMK AO2 T02020190
KZPH 250715Z AUTO 00000KT 10SM OVC090 20/19 A3018 RMK AO2 T02030190
KZPH 250655Z AUTO 00000KT 10SM OVC090 20/19 A3019 RMK AO2 T02010191
KZPH 250635Z AUTO 00000KT 10SM SCT065 SCT075 OVC090 21/19 A3019 RMK AO2 T02050193
KZPH 250615Z AUTO 00000KT 10SM SCT050 BKN065 OVC080 20/19 A3019 RMK AO2 T02040194
KZPH 250555Z AUTO 00000KT 10SM SCT065 OVC080 20/19 A3019 RMK AO2 60001 T02000193 10244 20190 402960151
KZPH 250535Z AUTO 00000KT 10SM BKN090 20/19 A3019 RMK AO2 T01990192
KZPH 250515Z AUTO 00000KT 10SM SCT060 SCT070 BKN080 21/20 A3019 RMK AO2 T02050196
KZPH 250455Z AUTO 00000KT 10SM SCT037 BKN060 OVC080 21/20 A3018 RMK AO2 P0001 T02060196
KZPH 250435Z AUTO 00000KT 10SM BKN034 BKN042 OVC055 21/20 A3018 RMK AO2 P0001 T02070197
KZPH 250415Z AUTO 00000KT 7SM -RA BKN032 OVC037 21/19 A3018 RMK AO2 P0001 T02050194
KZPH 250355Z AUTO 00000KT 10SM SCT036 SCT049 BKN075 20/19 A3018 RMK AO2 T01980188
KZPH 250335Z AUTO 00000KT 10SM SCT042 SCT060 BKN075 20/19 A3017 RMK AO2 T01970189
KZPH 250315Z AUTO 00000KT 10SM SCT044 SCT049 19/18 A3016 RMK AO2 T01920184
KZPH 250255Z AUTO 00000KT 10SM SCT046 SCT060 19/18 A3016 RMK AO2 T01910182
KZPH 250235Z AUTO 00000KT 10SM CLR 20/18 A3016 RMK AO2 T01970184
KZPH 250215Z AUTO 00000KT 10SM CLR 20/18 A3016 RMK AO2 T01950179
KZPH 250155Z AUTO 00000KT 10SM CLR 21/19 A3015 RMK AO2 T02050185
KZPH 250135Z AUTO 00000KT 10SM CLR 21/19 A3015 RMK AO2 T02070185
KZPH 250115Z AUTO 00000KT 10SM SCT060 SCT070 22/19 A3014 RMK AO2 T02190190
KZPH 250055Z AUTO 00000KT 10SM CLR 23/19 A3014 RMK AO2 T02270190
KZPH 250035Z AUTO 28003KT 10SM SCT070 SCT085 24/19 A3014 RMK AO2 T02350191
KZPH 250015Z AUTO 29006KT 10SM SCT065 SCT075 BKN080 24/19 A3013 RMK AO2 T02380190
KZPH 242355Z AUTO 30007KT 10SM BKN075 25/19 A3013 RMK AO2 T02450190 10296 20245
KZPH 242335Z AUTO 30007KT 10SM OVC080 25/19 A3013 RMK AO2 T02520192
KZPH 242315Z AUTO 00000KT 10SM BKN080 26/17 A3013 RMK AO2 T02590170
KZPH 242255Z AUTO 00000KT 10SM SCT060 SCT070 26/17 A3012 RMK AO2 T02620170
KZPH 242235Z AUTO 00000KT 10SM SCT070 SCT090 27/17 A3012 RMK AO2 T02690169
KZPH 242215Z AUTO 13004KT 10SM SCT050 SCT070 OVC090 28/17 A3013 RMK AO2 T02780167
KZPH 242155Z AUTO 14006KT 10SM BKN050 BKN070 BKN100 29/17 A3012 RMK AO2 T02920169
KZPH 242135Z AUTO 15006KT 10SM SCT050 SCT100 29/17 A3013 RMK AO2 T02890165
KZPH 242115Z AUTO 15005KT 10SM CLR 29/17 A3013 RMK AO2 T02940169
KZPH 242055Z AUTO 14004KT 10SM SCT100 29/17 A3013 RMK AO2 T02930169
KZPH 242035Z AUTO 00000KT 10SM BKN100 29/17 A3014 RMK AO2 T02940167
KZPH 242015Z AUTO 16003KT 10SM SCT070 OVC100 28/16 A3015 RMK AO2 T02790161
KZPH 241955Z AUTO 20003KT 10SM SCT048 BKN075 OVC090 28/16 A3016 RMK AO2 T02810164
KZPH 241935Z AUTO 14005KT 10SM SCT055 OVC080 28/16 A3016 RMK AO2 T02810164
KZPH 241915Z AUTO 16008KT 10SM SCT041 BKN080 OVC090 28/16 A3017 RMK AO2 T02790162
KZPH 241855Z AUTO 16008KT 10SM SCT070 OVC090 28/16 A3017 RMK AO2 T02810162
KZPH 241835Z AUTO 13007KT 110V170 10SM BKN070 OVC080 28/16 A3018 RMK AO2 T02800164
KZPH 241815Z AUTO 16007KT 10SM SCT060 BKN065 OVC085 28/17 A3019 RMK AO2 T02830165
KZPH 241755Z AUTO 14012KT 10SM SCT050 BKN070 BKN080 28/16 A3020 RMK AO2 T02760164 10290 20151
KZPH 241735Z AUTO 16012KT 10SM SCT042 SCT050 SCT065 28/17 A3021 RMK AO2 T02800170
KZPH 241715Z AUTO 16006KT 10SM SCT038 SCT050 SCT065 28/17 A3022 RMK AO2 T02770173
KZPH 241655Z AUTO 14006G15KT 10SM SCT038 SCT048 28/18 A3023 RMK AO2 T02770176
KZPH 241635Z AUTO 13007G15KT 10SM SCT036 BKN046 27/18 A3024 RMK AO2 T02710178
KZPH 241615Z AUTO 14011KT 10SM BKN044 27/18 A3024 RMK AO2 T02700176
KZPH 241555Z AUTO 16010KT 120V180 10SM SCT030 SCT034 SCT042 27/18 A3025 RMK AO2 T02660182
KZPH 241535Z AUTO 15009KT 10SM SCT028 SCT040 26/19 A3025 RMK AO2 T02590185
KZPH 241515Z AUTO 16008KT 10SM SCT023 25/19 A3025 RMK AO2 T02490189
KZPH 241455Z AUTO 15006KT 10SM CLR 24/19 A3025 RMK AO2 T02370192
KZPH 241435Z AUTO 14005KT 10SM CLR 23/20 A3026 RMK AO2 T02300196
KZPH 241415Z AUTO 13003KT 10SM CLR 21/20 A3026 RMK AO2 T02080197
KZPH 241355Z AUTO 10003KT 10SM CLR 20/20 A3026 RMK AO2 T02000198
KZPH 241335Z AUTO 00000KT 10SM SCT002 19/19 A3026 RMK AO2 T01910191
KZPH 241315Z AUTO 00000KT 7SM BKN002 19/19 A3026 RMK AO2 T01860185
KZPH 241255Z AUTO 00000KT 4SM BR CLR 17/17 A3025 RMK AO2 T01730173
KZPH 241235Z AUTO 00000KT 1/2SM FG VV005 16/16 A3025 RMK AO2 T01630162
KZPH 241215Z AUTO 00000KT M1/4SM FG VV000 15/15 A3024 RMK AO2 T01530153
KZPH 241155Z AUTO 00000KT 1/4SM FG VV002 15/15 A3024 RMK AO2 T01510150 10178 20151
KZPH 241135Z AUTO 00000KT 1/4SM FG VV002 15/15 A3024 RMK AO2 T01530152
KZPH 241115Z AUTO 00000KT 1/2SM FG VV005 16/16 A3023 RMK AO2 T01610161
KZPH 241055Z AUTO 00000KT M1/4SM FG VV000 15/15 A3023 RMK AO2 T01540153
KZPH 241035Z AUTO 00000KT 1/4SM FG VV002 16/16 A3023 RMK AO2 T01580156
KZPH 241015Z AUTO 00000KT 1/2SM FG VV005 16/15 A3023 RMK AO2 T01550153
KZPH 240955Z AUTO 00000KT 1/2SM FG VV005 16/16 A3023 RMK AO2 T01590157
KZPH 240935Z AUTO 00000KT 1 1/4SM BR VV007 16/16 A3023 RMK AO2 T01630161
KZPH 240915Z AUTO 00000KT 5SM BR CLR 16/16 A3023 RMK AO2 T01600158
KZPH 240855Z AUTO 06004KT 5SM BR CLR 17/17 A3023 RMK AO2 T01660165
KZPH 240835Z AUTO 00000KT 7SM CLR 16/16 A3024 RMK AO2 T01610158
KZPH 240815Z AUTO 00000KT 7SM CLR 16/16 A3024 RMK AO2 T01600156
KZPH 240755Z AUTO 00000KT 7SM CLR 17/16 A3024 RMK AO2 T01660162
KZPH 240735Z AUTO 00000KT 7SM CLR 17/17 A3025 RMK AO2 T01730170
KZPH 240715Z AUTO 00000KT 7SM CLR 17/17 A3025 RMK AO2 T01720168
KZPH 240655Z AUTO 00000KT 10SM CLR 17/17 A3026 RMK AO2 T01710165
KZPH 240635Z AUTO 00000KT 10SM CLR 17/16 A3026 RMK AO2 T01700164
KZPH 240615Z AUTO 00000KT 10SM CLR 18/17 A3027 RMK AO2 T01750169
KZPH 240555Z AUTO 00000KT 10SM CLR 18/17 A3027 RMK AO2 T01780171 10252 20175 403110155
KZPH 240535Z AUTO 00000KT 10SM CLR 18/17 A3027 RMK AO2 T01780167
KZPH 240515Z AUTO 00000KT 10SM CLR 19/17 A3028 RMK AO2 T01860172
KZPH 240455Z AUTO 00000KT 10SM CLR 19/17 A3029 RMK AO2 T01910171
KZPH 240435Z AUTO 00000KT 10SM CLR 20/18 A3029 RMK AO2 T02020176
KZPH 240415Z AUTO 00000KT 10SM CLR 20/18 A3029 RMK AO2 T02040175
KZPH 240355Z AUTO 10003KT 10SM CLR 21/18 A3029 RMK AO2 T02070175
KZPH 240335Z AUTO 12003KT 10SM CLR 21/18 A3029 RMK AO2 T02110175